sensor_id;sensor_type;location;lat;lon;timestamp;temperature;humidity
40516;DHT22;26216;53.724;9.898;2023-11-18T00:01:06;7.50;99.90
40516;DHT22;26216;53.724;9.898;2023-11-18T00:03:31;7.50;99.90
40516;DHT22;26216;53.724;9.898;2023-11-18T00:05:57;7.50;99.90
40516;DHT22;26216;53.724;9.898;2023-11-18T00:08:23;7.60;99.90
40516;DHT22;26216;53.724;9.898;2023-11-18T00:10:49;7.60;99.90
40516;DHT22;26216;53.724;9.898;2023-11-18T00:13:14;7.60;99.90
40516;DHT22;26216;53.724;9.898;2023-11-18T00:15:41;7.60;99.90
40516;DHT22;26216;53.724;9.898;2023-11-18T00:18:08;7.60;99.90
40516;DHT22;26216;53.724;9.898;2023-11-18T00:20:33;7.60;99.90
40516;DHT22;26216;53.724;9.898;2023-11-18T00:23:01;7.60;99.90
40516;DHT22;26216;53.724;9.898;2023-11-18T00:25:30;7.60;99.90
40516;DHT22;26216;53.724;9.898;2023-11-18T00:27:57;7.60;99.90
40516;DHT22;26216;53.724;9.898;2023-11-18T00:30:22;7.70;99.90
40516;DHT22;26216;53.724;9.898;2023-11-18T00:32:48;7.70;99.90
40516;DHT22;26216;53.724;9.898;2023-11-18T00:35:14;7.70;99.90
40516;DHT22;26216;53.724;9.898;2023-11-18T00:37:40;7.70;99.90
40516;DHT22;26216;53.724;9.898;2023-11-18T00:40:07;7.70;99.90
40516;DHT22;26216;53.724;9.898;2023-11-18T00:42:34;7.70;99.90
40516;DHT22;26216;53.724;9.898;2023-11-18T00:45:00;7.70;99.90
40516;DHT22;26216;53.724;9.898;2023-11-18T00:47:25;7.70;99.90
40516;DHT22;26216;53.724;9.898;2023-11-18T00:49:51;7.80;99.90
40516;DHT22;26216;53.724;9.898;2023-11-18T00:52:18;7.80;99.90
40516;DHT22;26216;53.724;9.898;2023-11-18T00:54:44;7.80;99.90
40516;DHT22;26216;53.724;9.898;2023-11-18T00:57:10;7.80;99.90
40516;DHT22;26216;53.724;9.898;2023-11-18T00:59:37;7.80;99.90
40516;DHT22;26216;53.724;9.898;2023-11-18T01:02:03;7.80;99.90
40516;DHT22;26216;53.724;9.898;2023-11-18T01:04:30;7.80;99.90
40516;DHT22;26216;53.724;9.898;2023-11-18T01:06:58;7.80;99.90
40516;DHT22;26216;53.724;9.898;2023-11-18T01:09:24;7.90;99.90
40516;DHT22;26216;53.724;9.898;2023-11-18T01:11:50;7.90;99.90
40516;DHT22;26216;53.724;9.898;2023-11-18T01:14:16;7.90;99.90
40516;DHT22;26216;53.724;9.898;2023-11-18T01:16:43;7.80;99.90
40516;DHT22;26216;53.724;9.898;2023-11-18T01:19:10;7.90;99.90
40516;DHT22;26216;53.724;9.898;2023-11-18T01:21:35;7.90;99.90
40516;DHT22;26216;53.724;9.898;2023-11-18T01:24:02;7.90;99.90
40516;DHT22;26216;53.724;9.898;2023-11-18T01:26:28;7.90;99.90
40516;DHT22;26216;53.724;9.898;2023-11-18T01:28:54;7.90;99.90
40516;DHT22;26216;53.724;9.898;2023-11-18T01:31:21;7.90;99.90
40516;DHT22;26216;53.724;9.898;2023-11-18T01:33:47;7.90;99.90
40516;DHT22;26216;53.724;9.898;2023-11-18T01:36:15;7.80;99.90
40516;DHT22;26216;53.724;9.898;2023-11-18T01:38:43;7.80;99.90
40516;DHT22;26216;53.724;9.898;2023-11-18T01:41:09;7.90;99.90
40516;DHT22;26216;53.724;9.898;2023-11-18T01:43:34;7.80;99.90
40516;DHT22;26216;53.724;9.898;2023-11-18T01:46:03;7.90;99.90
40516;DHT22;26216;53.724;9.898;2023-11-18T01:48:30;7.90;99.90
40516;DHT22;26216;53.724;9.898;2023-11-18T01:50:59;7.80;99.90
40516;DHT22;26216;53.724;9.898;2023-11-18T01:53:27;7.80;99.90
40516;DHT22;26216;53.724;9.898;2023-11-18T01:55:53;7.80;99.90
40516;DHT22;26216;53.724;9.898;2023-11-18T01:58:20;7.80;99.90
40516;DHT22;26216;53.724;9.898;2023-11-18T02:00:50;7.70;99.90
40516;DHT22;26216;53.724;9.898;2023-11-18T02:03:17;7.70;99.90
40516;DHT22;26216;53.724;9.898;2023-11-18T02:05:43;7.70;99.90
40516;DHT22;26216;53.724;9.898;2023-11-18T02:08:10;7.60;99.90
40516;DHT22;26216;53.724;9.898;2023-11-18T02:11:16;7.60;99.90
40516;DHT22;26216;53.724;9.898;2023-11-18T02:13:47;7.60;99.90
40516;DHT22;26216;53.724;9.898;2023-11-18T02:16:14;7.60;99.90
40516;DHT22;26216;53.724;9.898;2023-11-18T02:18:42;7.60;99.90
40516;DHT22;26216;53.724;9.898;2023-11-18T02:21:10;7.60;99.90
40516;DHT22;26216;53.724;9.898;2023-11-18T02:23:37;7.60;99.90
40516;DHT22;26216;53.724;9.898;2023-11-18T02:26:03;7.60;99.90
40516;DHT22;26216;53.724;9.898;2023-11-18T02:28:31;7.50;99.90
40516;DHT22;26216;53.724;9.898;2023-11-18T02:31:09;7.50;99.90
40516;DHT22;26216;53.724;9.898;2023-11-18T02:33:55;7.50;99.90
40516;DHT22;26216;53.724;9.898;2023-11-18T02:36:40;7.50;99.90
40516;DHT22;26216;53.724;9.898;2023-11-18T02:39:12;7.50;99.90
40516;DHT22;26216;53.724;9.898;2023-11-18T02:41:46;7.50;99.90
40516;DHT22;26216;53.724;9.898;2023-11-18T02:44:14;7.40;99.90
40516;DHT22;26216;53.724;9.898;2023-11-18T02:46:43;7.40;99.90
40516;DHT22;26216;53.724;9.898;2023-11-18T02:49:09;7.40;99.90
40516;DHT22;26216;53.724;9.898;2023-11-18T02:51:35;7.30;99.90
40516;DHT22;26216;53.724;9.898;2023-11-18T02:54:08;7.30;99.90
40516;DHT22;26216;53.724;9.898;2023-11-18T02:56:39;7.20;99.90
40516;DHT22;26216;53.724;9.898;2023-11-18T02:59:05;7.20;99.90
40516;DHT22;26216;53.724;9.898;2023-11-18T03:01:32;7.10;99.90
40516;DHT22;26216;53.724;9.898;2023-11-18T03:03:59;7.10;99.90
40516;DHT22;26216;53.724;9.898;2023-11-18T03:06:25;7.00;99.90
40516;DHT22;26216;53.724;9.898;2023-11-18T03:08:52;7.00;99.90
40516;DHT22;26216;53.724;9.898;2023-11-18T03:11:21;7.00;99.90
40516;DHT22;26216;53.724;9.898;2023-11-18T03:13:48;7.00;99.90
40516;DHT22;26216;53.724;9.898;2023-11-18T03:16:14;6.90;99.90
40516;DHT22;26216;53.724;9.898;2023-11-18T03:18:40;7.00;99.90
40516;DHT22;26216;53.724;9.898;2023-11-18T03:21:15;7.00;99.90
40516;DHT22;26216;53.724;9.898;2023-11-18T03:23:41;6.90;99.90
40516;DHT22;26216;53.724;9.898;2023-11-18T03:26:08;6.90;99.90
40516;DHT22;26216;53.724;9.898;2023-11-18T03:28:34;7.00;99.90
40516;DHT22;26216;53.724;9.898;2023-11-18T03:31:05;7.00;99.90
40516;DHT22;26216;53.724;9.898;2023-11-18T03:33:31;7.00;99.90
40516;DHT22;26216;53.724;9.898;2023-11-18T03:35:57;7.00;99.90
40516;DHT22;26216;53.724;9.898;2023-11-18T03:38:24;7.00;99.90
40516;DHT22;26216;53.724;9.898;2023-11-18T03:40:50;7.00;99.90
40516;DHT22;26216;53.724;9.898;2023-11-18T03:43:18;7.00;99.90
40516;DHT22;26216;53.724;9.898;2023-11-18T03:45:45;7.10;99.90
40516;DHT22;26216;53.724;9.898;2023-11-18T03:48:11;7.10;99.90
40516;DHT22;26216;53.724;9.898;2023-11-18T03:50:43;7.10;99.90
40516;DHT22;26216;53.724;9.898;2023-11-18T03:53:11;7.20;99.90
40516;DHT22;26216;53.724;9.898;2023-11-18T03:55:36;7.10;99.90
40516;DHT22;26216;53.724;9.898;2023-11-18T03:58:02;7.20;99.90
40516;DHT22;26216;53.724;9.898;2023-11-18T04:00:28;7.20;99.90
40516;DHT22;26216;53.724;9.898;2023-11-18T04:03:01;7.10;99.90
40516;DHT22;26216;53.724;9.898;2023-11-18T04:05:26;7.20;99.90
40516;DHT22;26216;53.724;9.898;2023-11-18T04:07:52;7.20;99.90
40516;DHT22;26216;53.724;9.898;2023-11-18T04:10:18;7.20;99.90
40516;DHT22;26216;53.724;9.898;2023-11-18T04:12:45;7.20;99.90
40516;DHT22;26216;53.724;9.898;2023-11-18T04:15:14;7.20;99.90
40516;DHT22;26216;53.724;9.898;2023-11-18T04:17:41;7.20;99.90
40516;DHT22;26216;53.724;9.898;2023-11-18T04:20:07;7.20;99.90
40516;DHT22;26216;53.724;9.898;2023-11-18T04:22:40;7.20;99.90
40516;DHT22;26216;53.724;9.898;2023-11-18T04:25:08;7.30;99.90
40516;DHT22;26216;53.724;9.898;2023-11-18T04:27:36;7.30;99.90
40516;DHT22;26216;53.724;9.898;2023-11-18T04:30:02;7.30;99.90
40516;DHT22;26216;53.724;9.898;2023-11-18T04:32:28;7.30;99.90
40516;DHT22;26216;53.724;9.898;2023-11-18T04:34:53;7.30;99.90
40516;DHT22;26216;53.724;9.898;2023-11-18T04:37:19;7.30;99.90
40516;DHT22;26216;53.724;9.898;2023-11-18T04:39:45;7.40;99.90
40516;DHT22;26216;53.724;9.898;2023-11-18T04:42:11;7.30;99.90
40516;DHT22;26216;53.724;9.898;2023-11-18T04:44:37;7.40;99.90
40516;DHT22;26216;53.724;9.898;2023-11-18T04:47:04;7.40;99.90
40516;DHT22;26216;53.724;9.898;2023-11-18T04:49:30;7.40;99.90
40516;DHT22;26216;53.724;9.898;2023-11-18T04:51:55;7.40;99.90
40516;DHT22;26216;53.724;9.898;2023-11-18T04:54:21;7.30;99.90
40516;DHT22;26216;53.724;9.898;2023-11-18T04:56:47;7.40;99.90
40516;DHT22;26216;53.724;9.898;2023-11-18T04:59:13;7.40;99.90
40516;DHT22;26216;53.724;9.898;2023-11-18T05:01:39;7.40;99.90
40516;DHT22;26216;53.724;9.898;2023-11-18T05:04:04;7.40;99.90
40516;DHT22;26216;53.724;9.898;2023-11-18T05:06:31;7.30;99.90
40516;DHT22;26216;53.724;9.898;2023-11-18T05:08:57;7.40;99.90
40516;DHT22;26216;53.724;9.898;2023-11-18T05:11:23;7.30;99.90
40516;DHT22;26216;53.724;9.898;2023-11-18T05:13:48;7.30;99.90
40516;DHT22;26216;53.724;9.898;2023-11-18T05:16:14;7.30;99.90
40516;DHT22;26216;53.724;9.898;2023-11-18T05:18:40;7.30;99.90
40516;DHT22;26216;53.724;9.898;2023-11-18T05:21:06;7.30;99.90
40516;DHT22;26216;53.724;9.898;2023-11-18T05:23:34;7.30;99.90
40516;DHT22;26216;53.724;9.898;2023-11-18T05:26:01;7.30;99.90
40516;DHT22;26216;53.724;9.898;2023-11-18T05:28:28;7.30;99.90
40516;DHT22;26216;53.724;9.898;2023-11-18T05:30:55;7.30;99.90
40516;DHT22;26216;53.724;9.898;2023-11-18T05:33:23;7.20;99.90
40516;DHT22;26216;53.724;9.898;2023-11-18T05:35:50;7.20;99.90
40516;DHT22;26216;53.724;9.898;2023-11-18T05:38:16;7.20;99.90
40516;DHT22;26216;53.724;9.898;2023-11-18T05:40:50;7.20;99.90
40516;DHT22;26216;53.724;9.898;2023-11-18T05:43:26;7.10;99.90
40516;DHT22;26216;53.724;9.898;2023-11-18T05:45:55;7.10;99.90
40516;DHT22;26216;53.724;9.898;2023-11-18T05:48:43;7.10;99.90
40516;DHT22;26216;53.724;9.898;2023-11-18T05:51:09;7.10;99.90
40516;DHT22;26216;53.724;9.898;2023-11-18T05:53:42;7.00;99.90
40516;DHT22;26216;53.724;9.898;2023-11-18T05:56:11;7.00;99.90
40516;DHT22;26216;53.724;9.898;2023-11-18T05:58:37;7.00;99.90
40516;DHT22;26216;53.724;9.898;2023-11-18T06:01:05;7.00;99.90
40516;DHT22;26216;53.724;9.898;2023-11-18T06:03:34;7.00;99.90
40516;DHT22;26216;53.724;9.898;2023-11-18T06:06:03;7.00;99.90
40516;DHT22;26216;53.724;9.898;2023-11-18T06:08:30;7.00;99.90
40516;DHT22;26216;53.724;9.898;2023-11-18T06:10:57;7.00;99.90
40516;DHT22;26216;53.724;9.898;2023-11-18T06:13:24;7.00;99.90
40516;DHT22;26216;53.724;9.898;2023-11-18T06:15:50;7.00;99.90
40516;DHT22;26216;53.724;9.898;2023-11-18T06:18:17;6.90;99.90
40516;DHT22;26216;53.724;9.898;2023-11-18T06:20:44;6.90;99.90
40516;DHT22;26216;53.724;9.898;2023-11-18T06:23:10;6.90;99.90
40516;DHT22;26216;53.724;9.898;2023-11-18T06:25:35;6.90;99.90
40516;DHT22;26216;53.724;9.898;2023-11-18T06:28:01;6.90;99.90
40516;DHT22;26216;53.724;9.898;2023-11-18T06:30:28;6.90;99.90
40516;DHT22;26216;53.724;9.898;2023-11-18T06:32:53;6.90;99.90
40516;DHT22;26216;53.724;9.898;2023-11-18T06:35:19;6.90;99.90
40516;DHT22;26216;53.724;9.898;2023-11-18T06:37:47;6.90;99.90
40516;DHT22;26216;53.724;9.898;2023-11-18T06:40:13;6.90;99.90
40516;DHT22;26216;53.724;9.898;2023-11-18T06:42:42;6.90;99.90
40516;DHT22;26216;53.724;9.898;2023-11-18T06:45:08;6.90;99.90
40516;DHT22;26216;53.724;9.898;2023-11-18T06:47:35;6.80;99.90
40516;DHT22;26216;53.724;9.898;2023-11-18T06:50:04;6.80;99.90
40516;DHT22;26216;53.724;9.898;2023-11-18T06:52:30;6.80;99.90
40516;DHT22;26216;53.724;9.898;2023-11-18T06:54:57;6.80;99.90
40516;DHT22;26216;53.724;9.898;2023-11-18T06:57:23;6.80;99.90
40516;DHT22;26216;53.724;9.898;2023-11-18T06:59:49;6.70;99.90
40516;DHT22;26216;53.724;9.898;2023-11-18T07:02:15;6.70;99.90
40516;DHT22;26216;53.724;9.898;2023-11-18T07:04:41;6.70;99.90
40516;DHT22;26216;53.724;9.898;2023-11-18T07:07:06;6.60;99.90
40516;DHT22;26216;53.724;9.898;2023-11-18T07:09:34;6.60;99.90
40516;DHT22;26216;53.724;9.898;2023-11-18T07:12:02;6.60;99.90
40516;DHT22;26216;53.724;9.898;2023-11-18T07:14:29;6.60;99.90
40516;DHT22;26216;53.724;9.898;2023-11-18T07:16:55;6.60;99.90
40516;DHT22;26216;53.724;9.898;2023-11-18T07:19:21;6.60;99.90
40516;DHT22;26216;53.724;9.898;2023-11-18T07:21:47;6.60;99.90
40516;DHT22;26216;53.724;9.898;2023-11-18T07:24:13;6.60;99.90
40516;DHT22;26216;53.724;9.898;2023-11-18T07:26:38;6.60;99.90
40516;DHT22;26216;53.724;9.898;2023-11-18T07:29:04;6.60;99.90
40516;DHT22;26216;53.724;9.898;2023-11-18T07:31:33;6.60;99.90
40516;DHT22;26216;53.724;9.898;2023-11-18T07:34:05;6.60;99.90
40516;DHT22;26216;53.724;9.898;2023-11-18T07:36:33;6.60;99.90
40516;DHT22;26216;53.724;9.898;2023-11-18T07:38:59;6.60;99.90
40516;DHT22;26216;53.724;9.898;2023-11-18T07:41:30;6.70;99.90
40516;DHT22;26216;53.724;9.898;2023-11-18T07:43:56;6.70;99.90
40516;DHT22;26216;53.724;9.898;2023-11-18T07:46:22;6.70;99.90
40516;DHT22;26216;53.724;9.898;2023-11-18T07:48:49;6.70;99.90
40516;DHT22;26216;53.724;9.898;2023-11-18T07:51:15;6.70;99.90
40516;DHT22;26216;53.724;9.898;2023-11-18T07:53:41;6.80;99.90
40516;DHT22;26216;53.724;9.898;2023-11-18T07:56:08;6.80;99.90
40516;DHT22;26216;53.724;9.898;2023-11-18T07:58:36;6.80;99.90
40516;DHT22;26216;53.724;9.898;2023-11-18T08:01:03;6.80;99.90
40516;DHT22;26216;53.724;9.898;2023-11-18T08:03:33;6.90;99.90
40516;DHT22;26216;53.724;9.898;2023-11-18T08:05:59;6.90;99.90
40516;DHT22;26216;53.724;9.898;2023-11-18T08:08:25;6.90;99.90
40516;DHT22;26216;53.724;9.898;2023-11-18T08:10:51;6.90;99.90
40516;DHT22;26216;53.724;9.898;2023-11-18T08:13:17;6.90;99.90
40516;DHT22;26216;53.724;9.898;2023-11-18T08:15:43;7.00;99.90
40516;DHT22;26216;53.724;9.898;2023-11-18T08:18:12;7.00;99.90
40516;DHT22;26216;53.724;9.898;2023-11-18T08:20:38;7.00;99.90
40516;DHT22;26216;53.724;9.898;2023-11-18T08:23:04;7.00;99.90
40516;DHT22;26216;53.724;9.898;2023-11-18T08:25:30;7.10;99.90
40516;DHT22;26216;53.724;9.898;2023-11-18T08:28:00;7.10;99.90
40516;DHT22;26216;53.724;9.898;2023-11-18T08:30:26;7.10;99.90
40516;DHT22;26216;53.724;9.898;2023-11-18T08:32:52;7.10;99.90
40516;DHT22;26216;53.724;9.898;2023-11-18T08:35:18;7.20;99.90
40516;DHT22;26216;53.724;9.898;2023-11-18T08:37:46;7.20;99.90
40516;DHT22;26216;53.724;9.898;2023-11-18T08:40:13;7.20;99.90
40516;DHT22;26216;53.724;9.898;2023-11-18T08:42:51;7.20;99.90
40516;DHT22;26216;53.724;9.898;2023-11-18T08:45:18;7.30;99.90
40516;DHT22;26216;53.724;9.898;2023-11-18T08:48:05;7.30;99.90
40516;DHT22;26216;53.724;9.898;2023-11-18T08:50:34;7.30;99.90
40516;DHT22;26216;53.724;9.898;2023-11-18T08:53:01;7.40;99.90
40516;DHT22;26216;53.724;9.898;2023-11-18T08:55:33;7.40;99.90
40516;DHT22;26216;53.724;9.898;2023-11-18T08:57:58;7.50;99.90
40516;DHT22;26216;53.724;9.898;2023-11-18T09:00:28;7.50;99.90
40516;DHT22;26216;53.724;9.898;2023-11-18T09:03:09;7.60;99.90
40516;DHT22;26216;53.724;9.898;2023-11-18T09:05:52;7.60;99.90
40516;DHT22;26216;53.724;9.898;2023-11-18T09:08:28;7.60;99.90
40516;DHT22;26216;53.724;9.898;2023-11-18T09:11:04;7.70;99.90
40516;DHT22;26216;53.724;9.898;2023-11-18T09:13:31;7.70;99.90
40516;DHT22;26216;53.724;9.898;2023-11-18T09:15:59;7.70;99.90
40516;DHT22;26216;53.724;9.898;2023-11-18T09:18:31;7.80;99.90
40516;DHT22;26216;53.724;9.898;2023-11-18T09:20:59;7.80;99.90
40516;DHT22;26216;53.724;9.898;2023-11-18T09:23:27;7.80;99.90
40516;DHT22;26216;53.724;9.898;2023-11-18T09:25:54;7.80;99.90
40516;DHT22;26216;53.724;9.898;2023-11-18T09:28:21;7.80;99.90
40516;DHT22;26216;53.724;9.898;2023-11-18T09:30:50;7.90;99.90
40516;DHT22;26216;53.724;9.898;2023-11-18T09:33:22;7.90;99.90
40516;DHT22;26216;53.724;9.898;2023-11-18T09:35:52;7.90;99.90
40516;DHT22;26216;53.724;9.898;2023-11-18T09:38:21;7.90;99.90
40516;DHT22;26216;53.724;9.898;2023-11-18T09:40:47;7.90;99.90
40516;DHT22;26216;53.724;9.898;2023-11-18T09:43:15;7.90;99.90
40516;DHT22;26216;53.724;9.898;2023-11-18T09:45:44;7.90;99.90
40516;DHT22;26216;53.724;9.898;2023-11-18T09:48:14;8.00;99.90
40516;DHT22;26216;53.724;9.898;2023-11-18T09:50:44;8.00;99.90
40516;DHT22;26216;53.724;9.898;2023-11-18T09:53:13;8.10;99.90
40516;DHT22;26216;53.724;9.898;2023-11-18T09:56:14;8.10;99.90
40516;DHT22;26216;53.724;9.898;2023-11-18T09:59:01;8.10;99.90
40516;DHT22;26216;53.724;9.898;2023-11-18T10:01:35;8.20;99.90
40516;DHT22;26216;53.724;9.898;2023-11-18T10:04:05;8.30;99.90
40516;DHT22;26216;53.724;9.898;2023-11-18T10:06:37;8.30;99.90
40516;DHT22;26216;53.724;9.898;2023-11-18T10:09:08;8.30;99.90
40516;DHT22;26216;53.724;9.898;2023-11-18T10:11:48;8.40;99.90
40516;DHT22;26216;53.724;9.898;2023-11-18T10:14:14;8.40;99.90
40516;DHT22;26216;53.724;9.898;2023-11-18T10:16:44;8.40;99.90
40516;DHT22;26216;53.724;9.898;2023-11-18T10:19:13;8.50;99.90
40516;DHT22;26216;53.724;9.898;2023-11-18T10:21:39;8.50;99.90
40516;DHT22;26216;53.724;9.898;2023-11-18T10:24:07;8.50;99.90
40516;DHT22;26216;53.724;9.898;2023-11-18T10:26:55;8.60;99.90
40516;DHT22;26216;53.724;9.898;2023-11-18T10:29:27;8.60;99.90
40516;DHT22;26216;53.724;9.898;2023-11-18T10:32:06;8.60;99.90
40516;DHT22;26216;53.724;9.898;2023-11-18T10:34:42;8.70;99.90
40516;DHT22;26216;53.724;9.898;2023-11-18T10:37:09;8.70;99.90
40516;DHT22;26216;53.724;9.898;2023-11-18T10:39:36;8.70;99.90
40516;DHT22;26216;53.724;9.898;2023-11-18T10:42:03;8.70;99.90
40516;DHT22;26216;53.724;9.898;2023-11-18T10:44:29;8.80;99.90
40516;DHT22;26216;53.724;9.898;2023-11-18T10:46:56;8.80;99.90
40516;DHT22;26216;53.724;9.898;2023-11-18T10:49:27;8.80;99.90
40516;DHT22;26216;53.724;9.898;2023-11-18T10:51:55;8.90;99.90
40516;DHT22;26216;53.724;9.898;2023-11-18T10:54:22;8.90;99.90
40516;DHT22;26216;53.724;9.898;2023-11-18T10:56:49;8.90;99.90
40516;DHT22;26216;53.724;9.898;2023-11-18T10:59:15;9.00;99.90
40516;DHT22;26216;53.724;9.898;2023-11-18T11:01:42;9.00;99.90
40516;DHT22;26216;53.724;9.898;2023-11-18T11:04:10;9.00;99.90
40516;DHT22;26216;53.724;9.898;2023-11-18T11:06:41;9.10;99.90
40516;DHT22;26216;53.724;9.898;2023-11-18T11:09:08;9.10;99.90
40516;DHT22;26216;53.724;9.898;2023-11-18T11:11:49;9.10;99.90
40516;DHT22;26216;53.724;9.898;2023-11-18T11:14:15;9.20;99.90
40516;DHT22;26216;53.724;9.898;2023-11-18T11:16:52;9.20;99.90
40516;DHT22;26216;53.724;9.898;2023-11-18T11:19:33;9.20;99.90
40516;DHT22;26216;53.724;9.898;2023-11-18T11:22:11;9.20;99.90
40516;DHT22;26216;53.724;9.898;2023-11-18T11:24:59;9.30;99.90
40516;DHT22;26216;53.724;9.898;2023-11-18T11:27:43;9.30;99.90
40516;DHT22;26216;53.724;9.898;2023-11-18T11:30:40;9.30;99.90
40516;DHT22;26216;53.724;9.898;2023-11-18T11:33:31;9.40;99.90
40516;DHT22;26216;53.724;9.898;2023-11-18T11:36:20;9.40;99.90
40516;DHT22;26216;53.724;9.898;2023-11-18T11:38:54;9.40;99.90
40516;DHT22;26216;53.724;9.898;2023-11-18T11:41:28;9.50;99.90
40516;DHT22;26216;53.724;9.898;2023-11-18T11:43:55;9.40;99.90
40516;DHT22;26216;53.724;9.898;2023-11-18T11:46:25;9.50;99.90
40516;DHT22;26216;53.724;9.898;2023-11-18T11:49:02;9.50;99.90
40516;DHT22;26216;53.724;9.898;2023-11-18T11:52:32;9.50;99.90
40516;DHT22;26216;53.724;9.898;2023-11-18T11:55:10;9.50;99.90
40516;DHT22;26216;53.724;9.898;2023-11-18T11:57:40;9.60;99.90
40516;DHT22;26216;53.724;9.898;2023-11-18T12:00:11;9.60;99.90
40516;DHT22;26216;53.724;9.898;2023-11-18T12:02:50;9.60;99.90
40516;DHT22;26216;53.724;9.898;2023-11-18T12:05:40;9.60;99.90
40516;DHT22;26216;53.724;9.898;2023-11-18T12:08:09;9.60;99.90
40516;DHT22;26216;53.724;9.898;2023-11-18T12:10:38;9.60;99.90
40516;DHT22;26216;53.724;9.898;2023-11-18T12:13:12;9.60;99.90
40516;DHT22;26216;53.724;9.898;2023-11-18T12:15:55;9.60;99.90
40516;DHT22;26216;53.724;9.898;2023-11-18T12:18:30;9.60;99.90
40516;DHT22;26216;53.724;9.898;2023-11-18T12:21:02;9.60;99.90
40516;DHT22;26216;53.724;9.898;2023-11-18T12:23:29;9.60;99.90
40516;DHT22;26216;53.724;9.898;2023-11-18T12:25:56;9.60;99.90
40516;DHT22;26216;53.724;9.898;2023-11-18T12:31:06;9.60;99.90
40516;DHT22;26216;53.724;9.898;2023-11-18T12:33:59;9.60;99.90
40516;DHT22;26216;53.724;9.898;2023-11-18T12:42:01;9.60;99.90
40516;DHT22;26216;53.724;9.898;2023-11-18T12:44:37;9.60;99.90
40516;DHT22;26216;53.724;9.898;2023-11-18T12:47:05;9.60;99.90
40516;DHT22;26216;53.724;9.898;2023-11-18T12:49:47;9.60;99.90
40516;DHT22;26216;53.724;9.898;2023-11-18T12:52:16;9.60;99.90
40516;DHT22;26216;53.724;9.898;2023-11-18T12:54:44;9.60;99.90
40516;DHT22;26216;53.724;9.898;2023-11-18T12:57:18;9.60;99.90
40516;DHT22;26216;53.724;9.898;2023-11-18T12:59:49;9.60;99.90
40516;DHT22;26216;53.724;9.898;2023-11-18T13:02:15;9.60;99.90
40516;DHT22;26216;53.724;9.898;2023-11-18T13:05:08;9.60;99.90
40516;DHT22;26216;53.724;9.898;2023-11-18T13:07:40;9.50;99.90
40516;DHT22;26216;53.724;9.898;2023-11-18T13:10:07;9.50;99.90
40516;DHT22;26216;53.724;9.898;2023-11-18T13:12:33;9.50;99.90
40516;DHT22;26216;53.724;9.898;2023-11-18T13:15:00;9.50;99.90
40516;DHT22;26216;53.724;9.898;2023-11-18T13:17:33;9.40;99.90
40516;DHT22;26216;53.724;9.898;2023-11-18T13:20:20;9.40;99.90
40516;DHT22;26216;53.724;9.898;2023-11-18T13:22:50;9.40;99.90
40516;DHT22;26216;53.724;9.898;2023-11-18T13:25:17;9.30;99.90
40516;DHT22;26216;53.724;9.898;2023-11-18T13:27:48;9.30;99.90
40516;DHT22;26216;53.724;9.898;2023-11-18T13:30:15;9.30;99.90
40516;DHT22;26216;53.724;9.898;2023-11-18T13:32:43;9.30;99.90
40516;DHT22;26216;53.724;9.898;2023-11-18T13:35:10;9.30;99.90
40516;DHT22;26216;53.724;9.898;2023-11-18T13:37:47;9.20;99.90
40516;DHT22;26216;53.724;9.898;2023-11-18T13:40:17;9.20;99.90
40516;DHT22;26216;53.724;9.898;2023-11-18T13:42:44;9.20;99.90
40516;DHT22;26216;53.724;9.898;2023-11-18T13:45:13;9.20;99.90
40516;DHT22;26216;53.724;9.898;2023-11-18T13:47:51;9.20;99.90
40516;DHT22;26216;53.724;9.898;2023-11-18T13:50:23;9.20;99.90
40516;DHT22;26216;53.724;9.898;2023-11-18T13:52:53;9.20;99.90
40516;DHT22;26216;53.724;9.898;2023-11-18T13:55:22;9.10;99.90
40516;DHT22;26216;53.724;9.898;2023-11-18T13:57:54;9.20;99.90
40516;DHT22;26216;53.724;9.898;2023-11-18T14:00:28;9.10;99.90
40516;DHT22;26216;53.724;9.898;2023-11-18T14:02:57;9.10;99.90
40516;DHT22;26216;53.724;9.898;2023-11-18T14:05:23;9.10;99.90
40516;DHT22;26216;53.724;9.898;2023-11-18T14:07:53;9.10;99.90
40516;DHT22;26216;53.724;9.898;2023-11-18T14:10:27;9.10;99.90
40516;DHT22;26216;53.724;9.898;2023-11-18T14:13:06;9.10;99.90
40516;DHT22;26216;53.724;9.898;2023-11-18T14:15:38;9.10;99.90
40516;DHT22;26216;53.724;9.898;2023-11-18T14:18:15;9.10;99.90
40516;DHT22;26216;53.724;9.898;2023-11-18T14:20:50;9.10;99.90
40516;DHT22;26216;53.724;9.898;2023-11-18T14:23:19;9.00;99.90
40516;DHT22;26216;53.724;9.898;2023-11-18T14:25:49;9.00;99.90
40516;DHT22;26216;53.724;9.898;2023-11-18T14:28:24;9.00;99.90
40516;DHT22;26216;53.724;9.898;2023-11-18T14:31:04;9.00;99.90
40516;DHT22;26216;53.724;9.898;2023-11-18T14:33:33;9.00;99.90
40516;DHT22;26216;53.724;9.898;2023-11-18T14:36:03;8.90;99.90
40516;DHT22;26216;53.724;9.898;2023-11-18T14:38:32;8.90;99.90
40516;DHT22;26216;53.724;9.898;2023-11-18T14:41:08;8.90;99.90
40516;DHT22;26216;53.724;9.898;2023-11-18T14:43:37;8.80;99.90
40516;DHT22;26216;53.724;9.898;2023-11-18T14:46:11;8.80;99.90
40516;DHT22;26216;53.724;9.898;2023-11-18T14:48:40;8.80;99.90
40516;DHT22;26216;53.724;9.898;2023-11-18T14:51:09;8.70;99.90
40516;DHT22;26216;53.724;9.898;2023-11-18T14:53:38;8.70;99.90
40516;DHT22;26216;53.724;9.898;2023-11-18T14:56:09;8.70;99.90
40516;DHT22;26216;53.724;9.898;2023-11-18T14:58:48;8.70;99.90
40516;DHT22;26216;53.724;9.898;2023-11-18T15:01:18;8.70;99.90
40516;DHT22;26216;53.724;9.898;2023-11-18T15:04:02;8.70;99.90
40516;DHT22;26216;53.724;9.898;2023-11-18T15:06:31;8.60;99.90
40516;DHT22;26216;53.724;9.898;2023-11-18T15:08:57;8.60;99.90
40516;DHT22;26216;53.724;9.898;2023-11-18T15:11:31;8.60;99.90
40516;DHT22;26216;53.724;9.898;2023-11-18T15:13:59;8.60;99.90
40516;DHT22;26216;53.724;9.898;2023-11-18T15:16:25;8.60;99.90
40516;DHT22;26216;53.724;9.898;2023-11-18T15:18:51;8.60;99.90
40516;DHT22;26216;53.724;9.898;2023-11-18T15:21:17;8.60;99.90
40516;DHT22;26216;53.724;9.898;2023-11-18T15:23:44;8.50;99.90
40516;DHT22;26216;53.724;9.898;2023-11-18T15:26:14;8.50;99.90
40516;DHT22;26216;53.724;9.898;2023-11-18T15:28:42;8.50;99.90
40516;DHT22;26216;53.724;9.898;2023-11-18T15:31:08;8.50;99.90
40516;DHT22;26216;53.724;9.898;2023-11-18T15:33:34;8.50;99.90
40516;DHT22;26216;53.724;9.898;2023-11-18T15:36:00;8.50;99.90
40516;DHT22;26216;53.724;9.898;2023-11-18T15:38:26;8.50;99.90
40516;DHT22;26216;53.724;9.898;2023-11-18T15:40:52;8.40;99.90
40516;DHT22;26216;53.724;9.898;2023-11-18T15:43:19;8.40;99.90
40516;DHT22;26216;53.724;9.898;2023-11-18T15:45:44;8.40;99.90
40516;DHT22;26216;53.724;9.898;2023-11-18T15:48:10;8.40;99.90
40516;DHT22;26216;53.724;9.898;2023-11-18T15:50:36;8.40;99.90
40516;DHT22;26216;53.724;9.898;2023-11-18T15:53:05;8.40;99.90
40516;DHT22;26216;53.724;9.898;2023-11-18T15:55:32;8.40;99.90
40516;DHT22;26216;53.724;9.898;2023-11-18T15:57:58;8.40;99.90
40516;DHT22;26216;53.724;9.898;2023-11-18T16:00:27;8.40;99.90
40516;DHT22;26216;53.724;9.898;2023-11-18T16:02:57;8.40;99.90
40516;DHT22;26216;53.724;9.898;2023-11-18T16:05:25;8.30;99.90
40516;DHT22;26216;53.724;9.898;2023-11-18T16:07:52;8.40;99.90